createdAt,value
2022-09-03T00:00:09.453Z,2.30
2022-09-03T00:02:39.503Z,2.40
2022-09-03T00:05:29.428Z,2.10
2022-09-03T00:08:19.053Z,2.20
2022-09-03T00:10:53.511Z,2.43
2022-09-03T00:13:29.600Z,2.80
2022-09-03T00:15:59.970Z,2.70
2022-09-03T00:18:35.454Z,2.50
2022-09-03T00:21:09.496Z,2.50
2022-09-03T00:23:41.370Z,2.03
2022-09-03T00:26:25.924Z,2.20
2022-09-03T00:29:31.727Z,2.40
2022-09-03T00:32:07.834Z,2.20
2022-09-03T00:34:41.577Z,2.07
2022-09-03T00:37:12.410Z,2.20
2022-09-03T00:39:43.248Z,2.20
2022-09-03T00:42:49.117Z,1.80
2022-09-03T00:45:25.473Z,1.77
2022-09-03T00:48:17.767Z,2.10
2022-09-03T00:51:14.558Z,2.20
2022-09-03T00:53:51.533Z,1.93
2022-09-03T00:56:55.826Z,1.90
2022-09-03T00:59:51.905Z,2.00
2022-09-03T01:02:50.702Z,2.00
2022-09-03T01:05:49.726Z,1.80
2022-09-03T01:08:49.212Z,1.70
2022-09-03T01:11:49.309Z,1.60
2022-09-03T01:15:12.407Z,1.83
2022-09-03T01:18:05.537Z,1.63
2022-09-03T01:21:22.790Z,2.10
2022-09-03T01:24:38.993Z,1.40
2022-09-03T01:27:59.471Z,1.60
2022-09-03T01:30:27.256Z,1.80
2022-09-03T01:32:57.348Z,1.63
2022-09-03T01:35:44.304Z,2.00
2022-09-03T01:38:53.287Z,1.80
2022-09-03T01:42:14.296Z,1.70
2022-09-03T01:45:51.608Z,1.70
2022-09-03T01:48:31.243Z,1.80
2022-09-03T01:51:32.487Z,1.73
2022-09-03T01:54:35.806Z,1.50
2022-09-03T01:57:35.560Z,1.90
2022-09-03T02:00:20.700Z,1.63
2022-09-03T02:02:52.939Z,1.70
2022-09-03T02:05:30.170Z,1.50
2022-09-03T02:08:07.727Z,1.83
2022-09-03T02:10:42.293Z,1.90
2022-09-03T02:13:20.551Z,1.80
2022-09-03T02:15:52.396Z,1.83
2022-09-03T02:18:49.151Z,1.70
2022-09-03T02:21:20.716Z,2.00
2022-09-03T02:23:49.605Z,1.70
2022-09-03T02:26:23.127Z,1.83
2022-09-03T02:28:53.505Z,1.80
2022-09-03T02:31:21.494Z,1.70
2022-09-03T02:33:51.308Z,1.83
2022-09-03T02:36:27.609Z,2.10
2022-09-03T02:38:55.313Z,1.90
2022-09-03T02:41:22.921Z,1.77
2022-09-03T02:44:26.053Z,1.77
2022-09-03T02:47:07.012Z,1.70
2022-09-03T02:49:34.785Z,1.47
2022-09-03T02:52:11.973Z,1.97
2022-09-03T02:54:40.238Z,1.90
2022-09-03T02:57:11.136Z,1.73
2022-09-03T02:59:39.962Z,1.70
2022-09-03T03:02:07.531Z,1.87
2022-09-03T03:04:35.057Z,1.80
2022-09-03T03:07:02.203Z,1.90
2022-09-03T03:09:29.381Z,1.87
2022-09-03T03:11:56.625Z,1.73
2022-09-03T03:14:24.252Z,1.80
2022-09-03T03:16:52.193Z,1.67
2022-09-03T03:19:19.581Z,1.80
2022-09-03T03:21:46.897Z,1.50
2022-09-03T03:24:14.201Z,1.60
2022-09-03T03:26:41.757Z,1.60
2022-09-03T03:29:14.168Z,1.50
2022-09-03T03:31:41.453Z,1.67
2022-09-03T03:34:08.571Z,1.87
2022-09-03T03:36:36.642Z,1.80
2022-09-03T03:39:04.514Z,1.60
2022-09-03T03:41:36.776Z,1.40
2022-09-03T03:44:07.875Z,1.40
2022-09-03T03:46:41.540Z,1.60
2022-09-03T03:49:10.482Z,1.67
2022-09-03T03:51:38.900Z,1.90
2022-09-03T03:54:06.876Z,1.63
2022-09-03T03:56:35.004Z,1.70
2022-09-03T03:59:02.442Z,1.40
2022-09-03T04:01:30.372Z,1.57
2022-09-03T04:04:00.312Z,1.70
2022-09-03T04:06:28.021Z,1.73
2022-09-03T04:08:55.350Z,1.60
2022-09-03T04:11:24.368Z,1.60
2022-09-03T04:13:53.119Z,1.83
2022-09-03T04:16:23.925Z,1.73
2022-09-03T04:18:52.608Z,1.70
2022-09-03T04:21:29.353Z,1.70
2022-09-03T04:23:58.603Z,1.60
2022-09-03T04:26:31.914Z,1.40
2022-09-03T04:29:02.576Z,1.70
2022-09-03T04:31:30.629Z,1.60
2022-09-03T04:33:59.287Z,1.90
2022-09-03T04:36:30.017Z,1.63
2022-09-03T04:39:01.924Z,1.67
2022-09-03T04:41:31.668Z,1.80
2022-09-03T04:44:00.244Z,1.70
2022-09-03T04:46:34.173Z,1.50
2022-09-03T04:49:02.153Z,1.63
2022-09-03T04:51:31.850Z,1.70
2022-09-03T04:54:03.199Z,1.73
2022-09-03T04:56:40.523Z,1.40
2022-09-03T04:59:11.897Z,1.50
2022-09-03T05:01:40.718Z,1.90
2022-09-03T05:04:08.801Z,1.80
2022-09-03T05:06:37.794Z,1.47
2022-09-03T05:09:06.067Z,1.50
2022-09-03T05:11:33.491Z,1.80
2022-09-03T05:14:01.298Z,1.67
2022-09-03T05:16:31.244Z,1.60
2022-09-03T05:19:01.489Z,1.80
2022-09-03T05:21:30.219Z,1.70
2022-09-03T05:23:59.755Z,1.70
2022-09-03T05:26:30.852Z,1.50
2022-09-03T05:29:02.190Z,1.60
2022-09-03T05:31:32.169Z,1.77
2022-09-03T05:34:03.279Z,1.40
2022-09-03T05:36:35.762Z,1.57
2022-09-03T05:39:04.306Z,1.40
2022-09-03T05:41:33.457Z,1.70
2022-09-03T05:44:00.588Z,1.70
2022-09-03T05:46:33.911Z,1.43
2022-09-03T05:49:04.076Z,1.80
2022-09-03T05:51:32.657Z,1.60
2022-09-03T05:54:00.627Z,1.60
2022-09-03T05:56:30.735Z,1.43
2022-09-03T05:59:02.217Z,1.70
2022-09-03T06:01:36.628Z,1.60
2022-09-03T06:04:15.184Z,1.80
2022-09-03T06:06:46.280Z,1.50
2022-09-03T06:09:19.214Z,1.50
2022-09-03T06:11:49.327Z,1.60
2022-09-03T06:14:18.290Z,1.80
2022-09-03T06:16:53.248Z,1.60
2022-09-03T06:19:20.974Z,1.50
2022-09-03T06:21:48.548Z,1.40
2022-09-03T06:24:26.247Z,1.50
2022-09-03T06:26:59.496Z,1.80
2022-09-03T06:29:28.647Z,1.73
2022-09-03T06:31:56.894Z,1.60
2022-09-03T06:34:27.352Z,1.50
2022-09-03T06:36:54.870Z,1.83
2022-09-03T06:39:22.446Z,1.50
2022-09-03T06:41:51.948Z,1.50
2022-09-03T06:44:19.279Z,1.60
2022-09-03T06:46:47.550Z,1.70
2022-09-03T06:49:15.096Z,1.70
2022-09-03T06:51:45.015Z,1.50
2022-09-03T06:54:13.328Z,1.30
2022-09-03T06:56:42.032Z,1.63
2022-09-03T06:59:16.095Z,1.37
2022-09-03T07:01:46.504Z,1.60
2022-09-03T07:04:20.166Z,1.60
2022-09-03T07:06:48.303Z,1.70
2022-09-03T07:09:18.486Z,1.40
2022-09-03T07:11:49.525Z,1.60
2022-09-03T07:14:20.369Z,1.50
2022-09-03T07:16:49.987Z,1.40
2022-09-03T07:19:20.680Z,1.40
2022-09-03T07:21:50.587Z,1.50
2022-09-03T07:24:22.239Z,1.40
2022-09-03T07:26:49.944Z,1.50
2022-09-03T07:29:20.940Z,1.60
2022-09-03T07:31:53.446Z,1.53
2022-09-03T07:34:25.495Z,1.50
2022-09-03T07:36:57.976Z,1.70
2022-09-03T07:39:25.749Z,1.43
2022-09-03T07:41:53.098Z,1.60
2022-09-03T07:44:20.662Z,1.80
2022-09-03T07:46:50.205Z,1.40
2022-09-03T07:49:17.555Z,1.63
2022-09-03T07:51:46.692Z,1.40
2022-09-03T07:54:14.056Z,1.70
2022-09-03T07:56:41.396Z,1.70
2022-09-03T07:59:09.351Z,1.50
2022-09-03T08:01:39.192Z,1.50
2022-09-03T08:04:10.079Z,1.60
2022-09-03T08:06:38.683Z,1.70
2022-09-03T08:09:11.512Z,1.50
2022-09-03T08:11:43.457Z,1.43
2022-09-03T08:14:14.290Z,1.63
2022-09-03T08:16:46.036Z,1.53
2022-09-03T08:19:14.940Z,1.40
2022-09-03T08:21:42.564Z,1.67
2022-09-03T08:24:12.335Z,1.70
2022-09-03T08:26:46.272Z,1.80
2022-09-03T08:29:18.299Z,1.60
2022-09-03T08:31:45.886Z,1.70
2022-09-03T08:34:14.884Z,2.00
2022-09-03T08:36:42.613Z,1.83
2022-09-03T08:39:11.866Z,1.70
2022-09-03T08:42:21.778Z,1.47
2022-09-03T08:44:57.102Z,1.40
2022-09-03T08:47:39.598Z,1.83
2022-09-03T08:50:45.635Z,1.40
2022-09-03T08:53:55.505Z,1.73
2022-09-03T08:56:29.490Z,1.70
2022-09-03T08:58:57.193Z,1.60
2022-09-03T09:02:01.433Z,1.50
2022-09-03T09:04:38.046Z,1.73
2022-09-03T09:07:33.267Z,1.50
2022-09-03T09:10:17.595Z,1.77
2022-09-03T09:13:27.593Z,1.50
2022-09-03T09:16:37.551Z,1.50
2022-09-03T09:19:32.221Z,1.50
2022-09-03T09:22:15.174Z,1.73
2022-09-03T09:24:49.724Z,1.47
2022-09-03T09:27:17.988Z,1.60
2022-09-03T09:29:50.962Z,1.80
2022-09-03T09:32:21.726Z,1.70
2022-09-03T09:34:52.259Z,1.60
2022-09-03T09:37:20.949Z,1.70
2022-09-03T09:39:58.788Z,2.07
2022-09-03T09:42:27.453Z,1.53
2022-09-03T09:44:54.630Z,1.80
2022-09-03T09:47:32.693Z,1.60
2022-09-03T09:50:02.825Z,1.77
2022-09-03T09:52:31.842Z,1.63
2022-09-03T09:55:18.526Z,1.60
2022-09-03T09:57:46.653Z,1.70
2022-09-03T10:00:18.142Z,1.60
2022-09-03T10:02:57.318Z,1.70
2022-09-03T10:05:28.271Z,1.70
2022-09-03T10:08:19.074Z,1.80
2022-09-03T10:10:50.804Z,1.50
2022-09-03T10:13:43.264Z,1.60
2022-09-03T10:16:30.208Z,1.90
2022-09-03T10:19:12.638Z,1.70
2022-09-03T10:22:18.246Z,1.70
2022-09-03T10:25:02.800Z,1.90
2022-09-03T10:27:32.101Z,1.67
2022-09-03T10:30:00.912Z,1.70
2022-09-03T10:32:38.947Z,2.27
2022-09-03T10:35:19.520Z,1.70
2022-09-03T10:38:38.185Z,1.33
2022-09-03T10:41:11.074Z,1.40
2022-09-03T10:44:26.097Z,1.70
2022-09-03T10:47:49.753Z,2.00
2022-09-03T10:50:29.130Z,1.80
2022-09-03T10:53:22.295Z,1.80
2022-09-03T10:56:17.486Z,1.60
2022-09-03T10:59:20.945Z,1.80
2022-09-03T11:02:41.445Z,1.90
2022-09-03T11:05:24.201Z,1.80
2022-09-03T11:08:22.249Z,2.03
2022-09-03T11:10:58.231Z,1.90
2022-09-03T11:14:03.914Z,1.70
2022-09-03T11:16:50.370Z,1.63
2022-09-03T11:19:48.464Z,2.00
2022-09-03T11:22:20.753Z,1.88
2022-09-03T11:25:00.082Z,1.67
2022-09-03T11:27:47.966Z,1.73
2022-09-03T11:30:26.422Z,1.52
2022-09-03T11:33:00.782Z,1.90
2022-09-03T11:35:57.515Z,1.70
2022-09-03T11:38:31.175Z,1.98
2022-09-03T11:41:27.163Z,1.77
2022-09-03T11:43:55.347Z,1.70
2022-09-03T11:46:22.555Z,1.90
2022-09-03T11:48:56.065Z,1.70
2022-09-03T11:51:37.920Z,1.92
2022-09-03T11:54:06.419Z,1.90
2022-09-03T11:56:35.915Z,2.00
2022-09-03T11:59:15.198Z,2.10
2022-09-03T12:02:24.881Z,1.90
2022-09-03T12:05:39.019Z,2.20
2022-09-03T12:08:39.767Z,2.10
2022-09-03T12:11:56.942Z,2.25
2022-09-03T12:15:11.274Z,2.05
2022-09-03T12:18:20.315Z,1.90
2022-09-03T12:21:09.844Z,1.83
2022-09-03T12:23:58.180Z,1.93
2022-09-03T12:26:27.697Z,2.13
2022-09-03T12:29:01.029Z,2.20
2022-09-03T12:31:45.218Z,1.87
2022-09-03T12:34:16.778Z,2.15
2022-09-03T12:36:51.660Z,2.03
2022-09-03T12:42:27.985Z,2.63
2022-09-03T12:44:55.384Z,1.95
2022-09-03T12:47:35.525Z,2.10
2022-09-03T12:50:12.468Z,2.20
2022-09-03T12:52:52.330Z,1.90
2022-09-03T12:55:47.479Z,2.10
2022-09-03T12:58:28.025Z,2.10
2022-09-03T13:01:04.126Z,2.28
2022-09-03T13:03:50.802Z,2.10
2022-09-03T13:06:25.591Z,2.30
2022-09-03T13:09:00.777Z,2.00
2022-09-03T13:11:29.722Z,2.20
2022-09-03T13:14:10.505Z,2.30
2022-09-03T13:16:46.788Z,2.10
2022-09-03T13:19:45.964Z,2.00
2022-09-03T13:22:27.407Z,2.83
2022-09-03T13:25:19.617Z,1.98
2022-09-03T13:27:55.585Z,1.75
2022-09-03T13:30:33.117Z,1.90
2022-09-03T13:33:29.521Z,1.92
2022-09-03T13:36:08.976Z,2.20
2022-09-03T13:38:39.065Z,1.90
2022-09-03T13:41:36.512Z,1.80
2022-09-03T13:44:08.489Z,1.83
2022-09-03T13:47:08.410Z,1.75
2022-09-03T13:50:29.483Z,1.90
2022-09-03T13:53:37.419Z,1.75
2022-09-03T13:56:58.444Z,1.88
2022-09-03T13:59:52.147Z,1.95
2022-09-03T14:02:38.796Z,1.80
2022-09-03T14:05:16.803Z,1.80
2022-09-03T14:07:59.002Z,1.75
2022-09-03T14:11:13.542Z,2.00
2022-09-03T14:14:15.445Z,1.90
2022-09-03T14:17:19.332Z,2.00
2022-09-03T14:20:00.581Z,2.00
2022-09-03T14:22:45.685Z,1.95
2022-09-03T14:25:26.099Z,2.05
2022-09-03T14:27:56.478Z,1.80
2022-09-03T14:30:46.650Z,2.10
2022-09-03T14:33:31.752Z,2.15
2022-09-03T14:36:36.032Z,1.90
2022-09-03T14:39:30.744Z,1.88
2022-09-03T14:42:07.317Z,2.10
2022-09-03T14:44:59.260Z,1.88
2022-09-03T14:48:28.194Z,1.73
2022-09-03T14:51:42.134Z,2.25
2022-09-03T14:54:52.836Z,2.17
2022-09-03T14:57:32.499Z,1.85
2022-09-03T15:00:19.696Z,2.20
2022-09-03T15:03:44.636Z,1.83
2022-09-03T15:06:40.645Z,1.98
2022-09-03T15:09:52.681Z,1.90
2022-09-03T15:12:37.578Z,2.10
2022-09-03T15:15:38.463Z,2.20
2022-09-03T15:18:37.478Z,2.22
2022-09-03T15:21:53.017Z,2.20
2022-09-03T15:25:08.224Z,2.10
2022-09-03T15:28:11.901Z,2.47
2022-09-03T15:31:08.996Z,2.00
2022-09-03T15:33:55.409Z,2.03
2022-09-03T15:36:36.456Z,2.10
2022-09-03T15:39:18.264Z,2.20
2022-09-03T15:41:57.641Z,2.00
2022-09-03T15:44:28.465Z,2.00
2022-09-03T15:47:13.923Z,2.10
2022-09-03T15:49:54.110Z,2.25
2022-09-03T15:52:30.492Z,2.40
2022-09-03T15:55:19.492Z,2.45
2022-09-03T15:58:05.255Z,2.45
2022-09-03T16:00:50.843Z,2.63
2022-09-03T16:03:33.571Z,2.92
2022-09-03T16:06:55.111Z,2.55
2022-09-03T16:10:28.441Z,2.50
2022-09-03T16:13:58.640Z,2.60
2022-09-03T16:16:44.514Z,2.10
2022-09-03T16:19:38.063Z,2.72
2022-09-03T16:22:17.936Z,2.33
2022-09-03T16:25:01.168Z,2.33
2022-09-03T16:28:01.619Z,2.50
2022-09-03T16:31:23.498Z,2.33
2022-09-03T16:34:22.805Z,2.20
2022-09-03T16:37:05.066Z,2.13
2022-09-03T16:40:28.803Z,2.40
2022-09-03T16:43:29.899Z,3.23
2022-09-03T16:46:11.522Z,2.40
2022-09-03T16:49:04.336Z,2.80
2022-09-03T16:52:18.586Z,2.67
2022-09-03T16:55:21.661Z,2.37
2022-09-03T16:58:10.006Z,2.53
2022-09-03T17:01:11.280Z,2.73
2022-09-03T17:04:33.541Z,2.80
2022-09-03T17:07:51.373Z,2.40
2022-09-03T17:11:13.764Z,2.60
2022-09-03T17:14:25.802Z,2.43
2022-09-03T17:17:43.947Z,2.70
2022-09-03T17:20:27.301Z,2.40
2022-09-03T17:23:15.390Z,1.90
2022-09-03T17:26:32.049Z,2.10
2022-09-03T17:29:25.420Z,2.23
2022-09-03T17:32:32.367Z,2.13
2022-09-03T17:35:50.037Z,2.20
2022-09-03T17:38:44.747Z,2.33
2022-09-03T17:41:49.841Z,2.70
2022-09-03T17:45:13.568Z,2.30
2022-09-03T17:48:06.858Z,2.57
2022-09-03T17:50:59.487Z,2.50
2022-09-03T17:53:48.552Z,2.60
2022-09-03T17:56:40.066Z,2.10
2022-09-03T17:59:47.985Z,2.37
2022-09-03T18:02:15.505Z,2.33
2022-09-03T18:05:09.599Z,2.87
2022-09-03T18:08:09.211Z,3.07
2022-09-03T18:11:19.956Z,2.63
2022-09-03T18:14:38.424Z,2.33
2022-09-03T18:17:29.133Z,2.30
2022-09-03T18:20:29.757Z,2.33
2022-09-03T18:23:50.035Z,2.10
2022-09-03T18:26:48.015Z,4.37
2022-09-03T18:29:56.056Z,3.23
2022-09-03T18:32:41.828Z,3.67
2022-09-03T18:35:29.606Z,3.03
2022-09-03T18:38:15.896Z,3.13
2022-09-03T18:41:52.221Z,3.27
2022-09-03T18:45:22.079Z,3.20
2022-09-03T18:48:35.204Z,3.20
2022-09-03T18:51:54.350Z,3.13
2022-09-03T18:55:14.801Z,3.07
2022-09-03T18:58:49.124Z,3.17
2022-09-03T19:01:48.021Z,2.87
2022-09-03T19:05:19.585Z,3.53
2022-09-03T19:08:27.656Z,3.60
2022-09-03T19:11:37.960Z,4.17
2022-09-03T19:14:40.591Z,4.60
2022-09-03T19:17:45.167Z,4.03
2022-09-03T19:20:49.993Z,3.10
2022-09-03T19:23:35.855Z,3.00
2022-09-03T19:26:55.365Z,3.37
2022-09-03T19:30:13.017Z,3.30
2022-09-03T19:33:13.878Z,3.00
2022-09-03T19:36:24.605Z,2.73
2022-09-03T19:40:05.756Z,2.50
2022-09-03T19:43:27.834Z,2.73
2022-09-03T19:46:49.903Z,2.63
2022-09-03T19:49:55.186Z,2.93
2022-09-03T19:53:10.924Z,2.90
2022-09-03T19:56:42.047Z,2.90
2022-09-03T19:59:39.453Z,3.33
2022-09-03T20:02:25.371Z,3.10
2022-09-03T20:05:19.897Z,3.47
2022-09-03T20:08:13.211Z,3.10
2022-09-03T20:10:48.262Z,3.30
2022-09-03T20:13:20.734Z,3.27
2022-09-03T20:16:18.245Z,2.80
2022-09-03T20:19:06.930Z,2.93
2022-09-03T20:22:08.482Z,3.00
2022-09-03T20:25:07.420Z,3.40
2022-09-03T20:27:58.627Z,3.10
2022-09-03T20:30:43.410Z,3.33
2022-09-03T20:33:22.901Z,2.97
2022-09-03T20:36:24.809Z,3.30
2022-09-03T20:39:28.904Z,3.00
2022-09-03T20:42:14.189Z,2.90
2022-09-03T20:45:11.913Z,3.07
2022-09-03T20:48:04.203Z,3.27
2022-09-03T20:51:08.307Z,3.17
2022-09-03T20:54:09.617Z,2.80
2022-09-03T20:56:36.725Z,3.10
2022-09-03T20:59:22.302Z,2.97
2022-09-03T21:02:01.469Z,2.83
2022-09-03T21:04:56.197Z,2.77
2022-09-03T21:07:46.404Z,3.03
2022-09-03T21:10:48.343Z,3.07
2022-09-03T21:13:50.556Z,3.00
2022-09-03T21:17:18.564Z,2.90
2022-09-03T21:20:22.284Z,2.90
2022-09-03T21:23:21.753Z,2.83
2022-09-03T21:26:14.831Z,3.10
2022-09-03T21:29:00.040Z,4.80
2022-09-03T21:31:52.674Z,3.77
2022-09-03T21:34:41.059Z,3.20
2022-09-03T21:37:13.580Z,3.40
2022-09-03T21:39:57.409Z,3.33
2022-09-03T21:42:34.489Z,3.33
2022-09-03T21:45:33.549Z,3.53
2022-09-03T21:48:35.770Z,3.70
2022-09-03T21:51:27.713Z,3.57
2022-09-03T21:54:01.254Z,3.70
2022-09-03T21:57:25.293Z,3.80
2022-09-03T22:00:07.137Z,3.23
2022-09-03T22:02:35.367Z,3.03
2022-09-03T22:05:03.788Z,3.23
2022-09-03T22:08:02.941Z,3.27
2022-09-03T22:10:35.926Z,3.40
2022-09-03T22:13:16.948Z,3.30
2022-09-03T22:15:50.396Z,3.20
2022-09-03T22:18:29.730Z,3.30
2022-09-03T22:21:18.449Z,3.37
2022-09-03T22:24:07.553Z,3.50
2022-09-03T22:27:36.510Z,3.70
2022-09-03T22:30:13.928Z,3.40
2022-09-03T22:33:05.898Z,3.13
2022-09-03T22:35:57.801Z,3.10
2022-09-03T22:38:54.000Z,3.63
2022-09-03T22:42:04.632Z,3.70
2022-09-03T22:44:55.058Z,3.37
2022-09-03T22:48:21.565Z,3.97
2022-09-03T22:50:57.213Z,3.50
2022-09-03T22:53:45.148Z,3.90
2022-09-03T22:56:22.059Z,3.97
2022-09-03T22:59:11.830Z,4.00
2022-09-03T23:02:13.411Z,3.97
2022-09-03T23:05:13.267Z,4.10
2022-09-03T23:08:10.225Z,3.63
2022-09-03T23:11:25.480Z,4.67
2022-09-03T23:14:19.997Z,4.30
2022-09-03T23:16:56.211Z,4.07
2022-09-03T23:19:41.114Z,4.40
2022-09-03T23:22:18.059Z,4.60
2022-09-03T23:25:01.334Z,4.33
2022-09-03T23:27:54.904Z,4.47
2022-09-03T23:30:22.300Z,4.70
2022-09-03T23:32:57.260Z,4.93
2022-09-03T23:35:35.194Z,4.40
2022-09-03T23:38:54.462Z,4.70
2022-09-03T23:41:56.168Z,5.20
2022-09-03T23:44:58.334Z,4.90
2022-09-03T23:47:45.927Z,4.50
2022-09-03T23:50:52.891Z,4.43
2022-09-03T23:53:42.390Z,4.63
2022-09-03T23:56:27.608Z,5.40
2022-09-03T23:59:10.557Z,5.30
